MAPA DE AEROPUERTO

INFORMACIÓN METAR y TAF

METAR FOR EGPH
ADDS - METARS form results

(2329 UTC 21 January 2021)
Data provider http://aviationweather.gov/metar/data/
 
METAR text: EGPH 212320Z 26014KT CAVOK 03/M00 Q0978
Conditions at: EGPH (EDINBURGH AIRPOR, GB) observed 2320 UTC 21 January 2021
Temperature: 3.0°C (37°F)
Dewpoint: 0.0°C (32°F) [RH = 81%]
Pressure (altimeter): 28.88 inches Hg (978.0 mb)
Winds: from the W (260 degrees) at 16 MPH (14 knots; 7.2 m/s)
Visibility: 6 or more miles (10+ km)
Ceiling: ceiling and visibility are OK
Clouds: unknown
Weather: no significant weather observed at this time

METAR text: EGPH 212250Z 25012KT CAVOK 03/M00 Q0977
Conditions at: EGPH (EDINBURGH AIRPOR, GB) observed 2250 UTC 21 January 2021
Temperature: 3.0°C (37°F)
Dewpoint: 0.0°C (32°F) [RH = 81%]
Pressure (altimeter): 28.85 inches Hg (977.0 mb)
Winds: from the WSW (250 degrees) at 14 MPH (12 knots; 6.2 m/s)
Visibility: 6 or more miles (10+ km)
Ceiling: ceiling and visibility are OK
Clouds: unknown
Weather: no significant weather observed at this time

Forecast for: EGPH (EDINBURGH AIRPOR, GB)
Text: TAF EGPH 212256Z 2200/2224 25012KT 9999 FEW030
Forecast period: 0000 UTC 22 January 2021 to 0000 UTC 23 January 2021
Forecast type: FROM: standard forecast or significant change
Winds: from the WSW (250 degrees) at 14 MPH (12 knots; 6.2 m/s)
Visibility: 6 or more miles (10+ km)
Ceiling: at least 12,000 feet AGL
Clouds: few clouds at 3000 feet AGL
Weather: no significant weather forecast for this period
Text: PROB40
Forecast period: 0000 to 0900 UTC 22 January 2021
Forecast type: TEMPORARY: The following changes expected for less than half the time period
Winds: from the W (260 degrees) at 21 MPH (18 knots; 9.3 m/s)
gusting to 32 MPH (28 knots; 14.4 m/s)
Visibility: missing
Ceiling: unknown
Clouds: missing
Weather: no significant weather forecast for this period